sensor_id;sensor_type;location;lat;lon;timestamp;pressure;altitude;pressure_sealevel;temperature;humidity
47883;BME280;37739;50.350;7.578;2024-01-15T00:02:18;98560.78;;;-1.45;90.19
47883;BME280;37739;50.350;7.578;2024-01-15T00:04:47;98563.50;;;-1.42;89.94
47883;BME280;37739;50.350;7.578;2024-01-15T00:07:13;98562.44;;;-1.45;89.75
47883;BME280;37739;50.350;7.578;2024-01-15T00:09:39;98554.63;;;-1.50;89.95
47883;BME280;37739;50.350;7.578;2024-01-15T00:12:07;98551.13;;;-1.52;90.09
47883;BME280;37739;50.350;7.578;2024-01-15T00:14:35;98545.22;;;-1.52;90.27
47883;BME280;37739;50.350;7.578;2024-01-15T00:17:00;98541.81;;;-1.53;89.68
47883;BME280;37739;50.350;7.578;2024-01-15T00:19:30;98538.72;;;-1.62;89.60
47883;BME280;37739;50.350;7.578;2024-01-15T00:21:57;98539.91;;;-1.57;89.76
47883;BME280;37739;50.350;7.578;2024-01-15T00:24:24;98539.53;;;-1.50;90.37
47883;BME280;37739;50.350;7.578;2024-01-15T00:26:49;98530.53;;;-1.46;90.01
47883;BME280;37739;50.350;7.578;2024-01-15T00:29:14;98535.47;;;-1.48;89.28
47883;BME280;37739;50.350;7.578;2024-01-15T00:31:39;98527.22;;;-1.45;89.56
47883;BME280;37739;50.350;7.578;2024-01-15T00:34:05;98526.94;;;-1.50;89.56
47883;BME280;37739;50.350;7.578;2024-01-15T00:36:30;98522.56;;;-1.52;89.53
47883;BME280;37739;50.350;7.578;2024-01-15T00:38:56;98531.00;;;-1.52;89.47
47883;BME280;37739;50.350;7.578;2024-01-15T00:41:21;98516.78;;;-1.51;89.60
47883;BME280;37739;50.350;7.578;2024-01-15T00:43:49;98517.47;;;-1.54;89.41
47883;BME280;37739;50.350;7.578;2024-01-15T00:46:16;98508.16;;;-1.55;89.09
47883;BME280;37739;50.350;7.578;2024-01-15T00:48:42;98508.28;;;-1.53;89.50
47883;BME280;37739;50.350;7.578;2024-01-15T00:51:12;98497.41;;;-1.52;89.02
47883;BME280;37739;50.350;7.578;2024-01-15T00:53:37;98508.84;;;-1.58;89.70
47883;BME280;37739;50.350;7.578;2024-01-15T00:56:04;98501.00;;;-1.62;89.51
47883;BME280;37739;50.350;7.578;2024-01-15T00:58:30;98498.00;;;-1.56;89.47
47883;BME280;37739;50.350;7.578;2024-01-15T01:00:57;98503.03;;;-1.56;89.74
47883;BME280;37739;50.350;7.578;2024-01-15T01:03:22;98498.69;;;-1.59;89.67
47883;BME280;37739;50.350;7.578;2024-01-15T01:05:50;98493.44;;;-1.62;89.94
47883;BME280;37739;50.350;7.578;2024-01-15T01:08:15;98490.28;;;-1.60;89.90
47883;BME280;37739;50.350;7.578;2024-01-15T01:10:43;98482.81;;;-1.58;89.94
47883;BME280;37739;50.350;7.578;2024-01-15T01:13:09;98486.88;;;-1.60;89.52
47883;BME280;37739;50.350;7.578;2024-01-15T01:15:34;98487.84;;;-1.58;89.65
47883;BME280;37739;50.350;7.578;2024-01-15T01:18:02;98480.22;;;-1.60;89.94
47883;BME280;37739;50.350;7.578;2024-01-15T01:20:30;98479.31;;;-1.60;90.08
47883;BME280;37739;50.350;7.578;2024-01-15T01:22:57;98483.38;;;-1.62;89.93
47883;BME280;37739;50.350;7.578;2024-01-15T01:25:23;98473.53;;;-1.59;89.72
47883;BME280;37739;50.350;7.578;2024-01-15T01:27:48;98475.94;;;-1.61;89.81
47883;BME280;37739;50.350;7.578;2024-01-15T01:30:16;98476.63;;;-1.63;89.90
47883;BME280;37739;50.350;7.578;2024-01-15T01:32:41;98470.22;;;-1.58;90.05
47883;BME280;37739;50.350;7.578;2024-01-15T01:35:09;98471.19;;;-1.56;89.68
47883;BME280;37739;50.350;7.578;2024-01-15T01:37:34;98476.16;;;-1.58;89.93
47883;BME280;37739;50.350;7.578;2024-01-15T01:40:02;98472.69;;;-1.60;89.85
47883;BME280;37739;50.350;7.578;2024-01-15T01:42:30;98477.88;;;-1.56;89.91
47883;BME280;37739;50.350;7.578;2024-01-15T01:44:55;98483.59;;;-1.59;89.45
47883;BME280;37739;50.350;7.578;2024-01-15T01:47:20;98471.13;;;-1.58;89.99
47883;BME280;37739;50.350;7.578;2024-01-15T01:49:46;98478.19;;;-1.65;90.39
47883;BME280;37739;50.350;7.578;2024-01-15T01:52:12;98475.38;;;-1.70;91.48
47883;BME280;37739;50.350;7.578;2024-01-15T01:54:38;98469.25;;;-1.73;91.53
47883;BME280;37739;50.350;7.578;2024-01-15T01:57:08;98466.75;;;-1.73;92.05
47883;BME280;37739;50.350;7.578;2024-01-15T01:59:34;98458.06;;;-1.79;92.72
47883;BME280;37739;50.350;7.578;2024-01-15T02:02:02;98452.44;;;-1.74;92.82
47883;BME280;37739;50.350;7.578;2024-01-15T02:04:31;98455.72;;;-1.75;92.55
47883;BME280;37739;50.350;7.578;2024-01-15T02:06:59;98459.19;;;-1.73;92.02
47883;BME280;37739;50.350;7.578;2024-01-15T02:09:24;98466.84;;;-1.72;91.99
47883;BME280;37739;50.350;7.578;2024-01-15T02:11:50;98471.13;;;-1.71;90.99
47883;BME280;37739;50.350;7.578;2024-01-15T02:14:15;98469.25;;;-1.73;90.92
47883;BME280;37739;50.350;7.578;2024-01-15T02:16:41;98467.44;;;-1.76;91.11
47883;BME280;37739;50.350;7.578;2024-01-15T02:19:17;98469.47;;;-1.70;91.06
47883;BME280;37739;50.350;7.578;2024-01-15T02:21:43;98466.00;;;-1.72;90.98
47883;BME280;37739;50.350;7.578;2024-01-15T02:24:08;98461.81;;;-1.72;90.92
47883;BME280;37739;50.350;7.578;2024-01-15T02:26:36;98466.84;;;-1.72;91.20
47883;BME280;37739;50.350;7.578;2024-01-15T02:29:04;98457.88;;;-1.68;91.02
47883;BME280;37739;50.350;7.578;2024-01-15T02:31:32;98467.06;;;-1.69;90.71
47883;BME280;37739;50.350;7.578;2024-01-15T02:34:00;98463.75;;;-1.68;90.76
47883;BME280;37739;50.350;7.578;2024-01-15T02:36:27;98465.13;;;-1.73;91.24
47883;BME280;37739;50.350;7.578;2024-01-15T02:38:52;98455.13;;;-1.71;90.54
47883;BME280;37739;50.350;7.578;2024-01-15T02:41:18;98471.50;;;-1.65;90.79
47883;BME280;37739;50.350;7.578;2024-01-15T02:43:43;98467.22;;;-1.66;90.75
47883;BME280;37739;50.350;7.578;2024-01-15T02:46:09;98461.94;;;-1.70;90.60
47883;BME280;37739;50.350;7.578;2024-01-15T02:48:39;98459.19;;;-1.73;91.62
47883;BME280;37739;50.350;7.578;2024-01-15T02:51:04;98454.97;;;-1.74;91.74
47883;BME280;37739;50.350;7.578;2024-01-15T02:53:31;98463.69;;;-1.69;91.42
47883;BME280;37739;50.350;7.578;2024-01-15T02:56:04;98468.13;;;-1.65;91.43
47883;BME280;37739;50.350;7.578;2024-01-15T02:58:29;98477.22;;;-1.67;91.47
47883;BME280;37739;50.350;7.578;2024-01-15T03:00:54;98469.84;;;-1.64;92.05
47883;BME280;37739;50.350;7.578;2024-01-15T03:03:20;98472.19;;;-1.67;92.81
47883;BME280;37739;50.350;7.578;2024-01-15T03:05:45;98467.44;;;-1.76;93.07
47883;BME280;37739;50.350;7.578;2024-01-15T03:08:14;98473.63;;;-1.71;93.39
47883;BME280;37739;50.350;7.578;2024-01-15T03:10:40;98475.25;;;-1.71;93.35
47883;BME280;37739;50.350;7.578;2024-01-15T03:13:07;98480.50;;;-1.68;93.67
47883;BME280;37739;50.350;7.578;2024-01-15T03:15:33;98473.44;;;-1.74;94.48
47883;BME280;37739;50.350;7.578;2024-01-15T03:18:00;98465.78;;;-1.75;94.79
47883;BME280;37739;50.350;7.578;2024-01-15T03:20:28;98461.44;;;-1.78;95.52
47883;BME280;37739;50.350;7.578;2024-01-15T03:22:55;98463.94;;;-1.78;95.45
47883;BME280;37739;50.350;7.578;2024-01-15T03:25:21;98464.81;;;-1.78;95.60
47883;BME280;37739;50.350;7.578;2024-01-15T03:27:48;98466.69;;;-1.75;95.49
47883;BME280;37739;50.350;7.578;2024-01-15T03:30:16;98471.97;;;-1.70;93.98
47883;BME280;37739;50.350;7.578;2024-01-15T03:32:41;98462.78;;;-1.70;93.76
47883;BME280;37739;50.350;7.578;2024-01-15T03:35:09;98456.69;;;-1.73;94.61
47883;BME280;37739;50.350;7.578;2024-01-15T03:37:34;98459.13;;;-1.75;94.60
47883;BME280;37739;50.350;7.578;2024-01-15T03:40:00;98453.53;;;-1.71;94.74
47883;BME280;37739;50.350;7.578;2024-01-15T03:42:26;98445.66;;;-1.75;94.70
47883;BME280;37739;50.350;7.578;2024-01-15T03:44:51;98462.69;;;-1.71;94.76
47883;BME280;37739;50.350;7.578;2024-01-15T03:47:16;98456.03;;;-1.71;94.53
47883;BME280;37739;50.350;7.578;2024-01-15T03:49:41;98459.41;;;-1.70;94.55
47883;BME280;37739;50.350;7.578;2024-01-15T03:52:07;98455.25;;;-1.70;94.21
47883;BME280;37739;50.350;7.578;2024-01-15T03:54:32;98462.19;;;-1.66;93.95
47883;BME280;37739;50.350;7.578;2024-01-15T03:57:00;98450.22;;;-1.70;94.20
47883;BME280;37739;50.350;7.578;2024-01-15T03:59:26;98454.47;;;-1.69;94.11
47883;BME280;37739;50.350;7.578;2024-01-15T04:01:53;98452.25;;;-1.64;93.75
47883;BME280;37739;50.350;7.578;2024-01-15T04:04:19;98449.56;;;-1.67;93.96
47883;BME280;37739;50.350;7.578;2024-01-15T04:06:46;98458.13;;;-1.64;93.67
47883;BME280;37739;50.350;7.578;2024-01-15T04:09:14;98457.47;;;-1.61;94.39
47883;BME280;37739;50.350;7.578;2024-01-15T04:11:42;98451.59;;;-1.62;94.74
47883;BME280;37739;50.350;7.578;2024-01-15T04:14:10;98448.38;;;-1.59;94.06
47883;BME280;37739;50.350;7.578;2024-01-15T04:16:37;98443.75;;;-1.66;94.48
47883;BME280;37739;50.350;7.578;2024-01-15T04:19:02;98448.78;;;-1.66;95.16
47883;BME280;37739;50.350;7.578;2024-01-15T04:21:28;98452.16;;;-1.66;95.15
47883;BME280;37739;50.350;7.578;2024-01-15T04:23:55;98453.09;;;-1.64;95.47
47883;BME280;37739;50.350;7.578;2024-01-15T04:26:23;98449.84;;;-1.63;95.73
47883;BME280;37739;50.350;7.578;2024-01-15T04:28:48;98448.88;;;-1.65;95.99
47883;BME280;37739;50.350;7.578;2024-01-15T04:31:23;98447.22;;;-1.64;97.30
47883;BME280;37739;50.350;7.578;2024-01-15T04:33:52;98446.25;;;-1.66;97.73
47883;BME280;37739;50.350;7.578;2024-01-15T04:36:20;98436.78;;;-1.70;97.96
47883;BME280;37739;50.350;7.578;2024-01-15T04:38:45;98429.13;;;-1.72;98.19
47883;BME280;37739;50.350;7.578;2024-01-15T04:41:14;98420.03;;;-1.70;97.69
47883;BME280;37739;50.350;7.578;2024-01-15T04:43:42;98420.94;;;-1.69;97.74
47883;BME280;37739;50.350;7.578;2024-01-15T04:46:08;98428.66;;;-1.66;97.35
47883;BME280;37739;50.350;7.578;2024-01-15T04:48:36;98427.47;;;-1.58;96.88
47883;BME280;37739;50.350;7.578;2024-01-15T04:51:08;98431.75;;;-1.57;96.78
47883;BME280;37739;50.350;7.578;2024-01-15T04:53:36;98422.38;;;-1.60;96.57
47883;BME280;37739;50.350;7.578;2024-01-15T04:56:02;98425.28;;;-1.53;96.63
47883;BME280;37739;50.350;7.578;2024-01-15T04:58:34;98409.13;;;-1.57;96.03
47883;BME280;37739;50.350;7.578;2024-01-15T05:01:00;98409.22;;;-1.55;96.09
47883;BME280;37739;50.350;7.578;2024-01-15T05:03:30;98404.78;;;-1.60;97.36
47883;BME280;37739;50.350;7.578;2024-01-15T05:05:57;98409.22;;;-1.55;96.88
47883;BME280;37739;50.350;7.578;2024-01-15T05:08:25;98411.72;;;-1.55;97.17
47883;BME280;37739;50.350;7.578;2024-01-15T05:10:50;98404.28;;;-1.54;96.99
47883;BME280;37739;50.350;7.578;2024-01-15T05:13:18;98402.72;;;-1.52;97.12
47883;BME280;37739;50.350;7.578;2024-01-15T05:15:43;98390.31;;;-1.49;97.46
47883;BME280;37739;50.350;7.578;2024-01-15T05:18:08;98390.44;;;-1.47;96.56
47883;BME280;37739;50.350;7.578;2024-01-15T05:20:34;98401.19;;;-1.50;97.02
47883;BME280;37739;50.350;7.578;2024-01-15T05:23:01;98391.38;;;-1.45;96.70
47883;BME280;37739;50.350;7.578;2024-01-15T05:25:29;98393.91;;;-1.45;96.85
47883;BME280;37739;50.350;7.578;2024-01-15T05:27:55;98396.22;;;-1.48;97.33
47883;BME280;37739;50.350;7.578;2024-01-15T05:30:24;98400.38;;;-1.49;96.85
47883;BME280;37739;50.350;7.578;2024-01-15T05:32:54;98396.81;;;-1.52;97.52
47883;BME280;37739;50.350;7.578;2024-01-15T05:35:19;98400.22;;;-1.52;97.31
47883;BME280;37739;50.350;7.578;2024-01-15T05:37:49;98396.91;;;-1.51;97.21
47883;BME280;37739;50.350;7.578;2024-01-15T05:40:14;98392.94;;;-1.47;97.14
47883;BME280;37739;50.350;7.578;2024-01-15T05:42:42;98394.97;;;-1.42;96.62
47883;BME280;37739;50.350;7.578;2024-01-15T05:45:10;98391.28;;;-1.47;97.29
47883;BME280;37739;50.350;7.578;2024-01-15T05:47:35;98391.59;;;-1.42;97.20
47883;BME280;37739;50.350;7.578;2024-01-15T05:50:06;98395.16;;;-1.39;96.90
47883;BME280;37739;50.350;7.578;2024-01-15T05:52:32;98390.13;;;-1.39;97.14
47883;BME280;37739;50.350;7.578;2024-01-15T05:54:59;98386.94;;;-1.36;96.77
47883;BME280;37739;50.350;7.578;2024-01-15T05:57:28;98390.31;;;-1.35;96.40
47883;BME280;37739;50.350;7.578;2024-01-15T05:59:55;98387.19;;;-1.31;96.88
47883;BME280;37739;50.350;7.578;2024-01-15T06:02:21;98381.31;;;-1.32;97.01
47883;BME280;37739;50.350;7.578;2024-01-15T06:04:46;98395.44;;;-1.34;97.05
47883;BME280;37739;50.350;7.578;2024-01-15T06:07:14;98394.84;;;-1.30;96.50
47883;BME280;37739;50.350;7.578;2024-01-15T06:09:41;98387.97;;;-1.32;97.11
47883;BME280;37739;50.350;7.578;2024-01-15T06:12:09;98390.75;;;-1.28;97.14
47883;BME280;37739;50.350;7.578;2024-01-15T06:14:39;98399.28;;;-1.26;96.56
47883;BME280;37739;50.350;7.578;2024-01-15T06:17:04;98388.34;;;-1.26;96.33
47883;BME280;37739;50.350;7.578;2024-01-15T06:19:29;98397.72;;;-1.24;96.18
47883;BME280;37739;50.350;7.578;2024-01-15T06:21:55;98402.09;;;-1.21;96.38
47883;BME280;37739;50.350;7.578;2024-01-15T06:24:25;98400.13;;;-1.25;96.37
47883;BME280;37739;50.350;7.578;2024-01-15T06:26:52;98406.53;;;-1.17;96.10
47883;BME280;37739;50.350;7.578;2024-01-15T06:29:18;98400.91;;;-1.13;96.05
47883;BME280;37739;50.350;7.578;2024-01-15T06:31:43;98392.97;;;-1.19;96.90
47883;BME280;37739;50.350;7.578;2024-01-15T06:34:09;98398.03;;;-1.19;97.50
47883;BME280;37739;50.350;7.578;2024-01-15T06:36:34;98400.19;;;-1.10;97.04
47883;BME280;37739;50.350;7.578;2024-01-15T06:39:02;98397.53;;;-1.13;98.17
47883;BME280;37739;50.350;7.578;2024-01-15T06:41:27;98404.19;;;-1.14;98.08
47883;BME280;37739;50.350;7.578;2024-01-15T06:43:53;98404.09;;;-1.15;97.84
47883;BME280;37739;50.350;7.578;2024-01-15T06:46:23;98410.75;;;-1.16;98.14
47883;BME280;37739;50.350;7.578;2024-01-15T06:48:51;98407.66;;;-1.12;98.09
47883;BME280;37739;50.350;7.578;2024-01-15T06:51:16;98409.22;;;-1.14;98.07
47883;BME280;37739;50.350;7.578;2024-01-15T06:53:42;98394.09;;;-1.14;97.41
47883;BME280;37739;50.350;7.578;2024-01-15T06:56:09;98397.41;;;-1.15;97.66
47883;BME280;37739;50.350;7.578;2024-01-15T06:58:35;98396.47;;;-1.17;97.36
47883;BME280;37739;50.350;7.578;2024-01-15T07:01:00;98394.91;;;-1.15;97.43
47883;BME280;37739;50.350;7.578;2024-01-15T07:03:28;98389.28;;;-1.11;97.10
47883;BME280;37739;50.350;7.578;2024-01-15T07:05:55;98393.59;;;-1.08;96.82
47883;BME280;37739;50.350;7.578;2024-01-15T07:08:21;98393.59;;;-1.08;96.87
47883;BME280;37739;50.350;7.578;2024-01-15T07:10:46;98393.50;;;-1.10;96.76
47883;BME280;37739;50.350;7.578;2024-01-15T07:13:11;98388.31;;;-1.13;97.10
47883;BME280;37739;50.350;7.578;2024-01-15T07:15:36;98383.38;;;-1.11;97.29
47883;BME280;37739;50.350;7.578;2024-01-15T07:18:04;98395.16;;;-1.10;97.46
47883;BME280;37739;50.350;7.578;2024-01-15T07:20:36;98390.72;;;-1.14;97.82
47883;BME280;37739;50.350;7.578;2024-01-15T07:23:04;98398.47;;;-1.11;97.01
47883;BME280;37739;50.350;7.578;2024-01-15T07:25:32;98397.69;;;-1.10;96.93
47883;BME280;37739;50.350;7.578;2024-01-15T07:28:00;98393.81;;;-1.05;96.32
47883;BME280;37739;50.350;7.578;2024-01-15T07:30:31;98385.19;;;-1.09;96.36
47883;BME280;37739;50.350;7.578;2024-01-15T07:32:56;98384.50;;;-1.06;96.10
47883;BME280;37739;50.350;7.578;2024-01-15T07:35:22;98394.41;;;-1.09;95.69
47883;BME280;37739;50.350;7.578;2024-01-15T07:37:47;98397.03;;;-1.08;95.76
47883;BME280;37739;50.350;7.578;2024-01-15T07:40:12;98390.44;;;-1.06;95.74
47883;BME280;37739;50.350;7.578;2024-01-15T07:42:40;98387.81;;;-1.07;95.45
47883;BME280;37739;50.350;7.578;2024-01-15T07:45:08;98398.84;;;-1.05;95.74
47883;BME280;37739;50.350;7.578;2024-01-15T07:47:36;98391.38;;;-1.04;95.53
47883;BME280;37739;50.350;7.578;2024-01-15T07:50:01;98395.81;;;-1.00;95.28
47883;BME280;37739;50.350;7.578;2024-01-15T07:52:27;98381.69;;;-0.97;95.55
47883;BME280;37739;50.350;7.578;2024-01-15T07:54:58;98382.72;;;-0.94;95.20
47883;BME280;37739;50.350;7.578;2024-01-15T07:57:33;98379.91;;;-0.99;95.60
47883;BME280;37739;50.350;7.578;2024-01-15T07:59:58;98384.28;;;-0.96;95.70
47883;BME280;37739;50.350;7.578;2024-01-15T08:02:24;98392.91;;;-0.92;95.64
47883;BME280;37739;50.350;7.578;2024-01-15T08:04:49;98390.38;;;-0.92;95.29
47883;BME280;37739;50.350;7.578;2024-01-15T08:07:17;98382.03;;;-0.91;95.74
47883;BME280;37739;50.350;7.578;2024-01-15T08:09:45;98388.72;;;-0.92;95.44
47883;BME280;37739;50.350;7.578;2024-01-15T08:12:14;98386.47;;;-0.87;95.34
47883;BME280;37739;50.350;7.578;2024-01-15T08:14:39;98388.22;;;-0.86;95.28
47883;BME280;37739;50.350;7.578;2024-01-15T08:17:07;98390.75;;;-0.86;95.33
47883;BME280;37739;50.350;7.578;2024-01-15T08:19:32;98403.44;;;-0.85;95.45
47883;BME280;37739;50.350;7.578;2024-01-15T08:22:00;98402.88;;;-0.79;95.13
47883;BME280;37739;50.350;7.578;2024-01-15T08:24:28;98391.28;;;-0.77;94.80
47883;BME280;37739;50.350;7.578;2024-01-15T08:26:53;98399.41;;;-0.81;94.53
47883;BME280;37739;50.350;7.578;2024-01-15T08:29:19;98397.84;;;-0.79;94.55
47883;BME280;37739;50.350;7.578;2024-01-15T08:31:48;98390.28;;;-0.79;94.40
47883;BME280;37739;50.350;7.578;2024-01-15T08:34:13;98383.53;;;-0.80;94.00
47883;BME280;37739;50.350;7.578;2024-01-15T08:36:39;98387.09;;;-0.76;93.96
47883;BME280;37739;50.350;7.578;2024-01-15T08:39:07;98392.31;;;-0.73;93.66
47883;BME280;37739;50.350;7.578;2024-01-15T08:41:34;98393.81;;;-0.77;93.83
47883;BME280;37739;50.350;7.578;2024-01-15T08:43:59;98385.56;;;-0.74;94.21
47883;BME280;37739;50.350;7.578;2024-01-15T08:46:27;98385.19;;;-0.66;93.76
47883;BME280;37739;50.350;7.578;2024-01-15T08:48:55;98388.97;;;-0.59;93.52
47883;BME280;37739;50.350;7.578;2024-01-15T08:51:23;98391.91;;;-0.51;93.63
47883;BME280;37739;50.350;7.578;2024-01-15T08:53:48;98396.16;;;-0.50;93.28
47883;BME280;37739;50.350;7.578;2024-01-15T08:56:16;98396.44;;;-0.46;93.35
47883;BME280;37739;50.350;7.578;2024-01-15T08:58:41;98395.66;;;-0.45;93.20
47883;BME280;37739;50.350;7.578;2024-01-15T09:01:09;98390.78;;;-0.42;92.65
47883;BME280;37739;50.350;7.578;2024-01-15T09:03:34;98399.22;;;-0.41;92.90
47883;BME280;37739;50.350;7.578;2024-01-15T09:06:00;98397.75;;;-0.37;92.60
47883;BME280;37739;50.350;7.578;2024-01-15T09:08:27;98399.50;;;-0.36;92.32
47883;BME280;37739;50.350;7.578;2024-01-15T09:10:55;98396.97;;;-0.36;91.85
47883;BME280;37739;50.350;7.578;2024-01-15T09:13:21;98400.34;;;-0.36;91.98
47883;BME280;37739;50.350;7.578;2024-01-15T09:15:46;98405.84;;;-0.28;91.48
47883;BME280;37739;50.350;7.578;2024-01-15T09:18:11;98399.84;;;-0.30;91.68
47883;BME280;37739;50.350;7.578;2024-01-15T09:20:37;98404.78;;;-0.32;91.42
47883;BME280;37739;50.350;7.578;2024-01-15T09:23:03;98408.97;;;-0.32;91.62
47883;BME280;37739;50.350;7.578;2024-01-15T09:25:31;98410.00;;;-0.29;91.91
47883;BME280;37739;50.350;7.578;2024-01-15T09:27:57;98418.59;;;-0.25;91.40
47883;BME280;37739;50.350;7.578;2024-01-15T09:30:26;98412.69;;;-0.26;91.83
47883;BME280;37739;50.350;7.578;2024-01-15T09:32:52;98410.97;;;-0.27;91.75
47883;BME280;37739;50.350;7.578;2024-01-15T09:35:22;98409.41;;;-0.25;91.85
47883;BME280;37739;50.350;7.578;2024-01-15T09:37:47;98406.09;;;-0.24;91.73
47883;BME280;37739;50.350;7.578;2024-01-15T09:40:13;98409.03;;;-0.16;91.94
47883;BME280;37739;50.350;7.578;2024-01-15T09:42:43;98409.81;;;-0.02;91.08
47883;BME280;37739;50.350;7.578;2024-01-15T09:45:11;98415.72;;;0.13;90.30
47883;BME280;37739;50.350;7.578;2024-01-15T09:47:40;98416.50;;;0.27;90.60
47883;BME280;37739;50.350;7.578;2024-01-15T09:50:09;98409.88;;;0.29;89.78
47883;BME280;37739;50.350;7.578;2024-01-15T09:52:37;98405.16;;;0.35;90.03
47883;BME280;37739;50.350;7.578;2024-01-15T09:55:07;98418.53;;;0.34;89.15
47883;BME280;37739;50.350;7.578;2024-01-15T09:57:34;98414.03;;;0.29;89.19
47883;BME280;37739;50.350;7.578;2024-01-15T10:00:03;98410.03;;;0.32;89.36
47883;BME280;37739;50.350;7.578;2024-01-15T10:02:29;98414.41;;;0.35;89.33
47883;BME280;37739;50.350;7.578;2024-01-15T10:04:55;98398.38;;;0.34;89.10
47883;BME280;37739;50.350;7.578;2024-01-15T10:07:21;98404.22;;;0.33;89.49
47883;BME280;37739;50.350;7.578;2024-01-15T10:09:47;98397.88;;;0.25;89.44
47883;BME280;37739;50.350;7.578;2024-01-15T10:12:12;98397.19;;;0.28;90.20
47883;BME280;37739;50.350;7.578;2024-01-15T10:14:38;98404.91;;;0.31;89.83
47883;BME280;37739;50.350;7.578;2024-01-15T10:17:13;98396.13;;;0.24;89.98
47883;BME280;37739;50.350;7.578;2024-01-15T10:19:47;98393.25;;;0.33;90.32
47883;BME280;37739;50.350;7.578;2024-01-15T10:22:17;98394.22;;;0.35;90.20
47883;BME280;37739;50.350;7.578;2024-01-15T10:24:48;98397.50;;;0.34;90.23
47883;BME280;37739;50.350;7.578;2024-01-15T10:27:14;98383.59;;;0.41;90.12
47883;BME280;37739;50.350;7.578;2024-01-15T10:29:42;98375.53;;;0.48;89.58
47883;BME280;37739;50.350;7.578;2024-01-15T10:32:07;98376.66;;;0.53;89.52
47883;BME280;37739;50.350;7.578;2024-01-15T10:34:39;98374.31;;;0.56;89.60
47883;BME280;37739;50.350;7.578;2024-01-15T10:37:07;98372.47;;;0.53;89.57
47883;BME280;37739;50.350;7.578;2024-01-15T10:39:32;98376.66;;;0.53;90.28
47883;BME280;37739;50.350;7.578;2024-01-15T10:42:00;98362.16;;;0.49;89.85
47883;BME280;37739;50.350;7.578;2024-01-15T10:44:25;98355.91;;;0.42;90.08
47883;BME280;37739;50.350;7.578;2024-01-15T10:46:51;98354.94;;;0.40;90.09
47883;BME280;37739;50.350;7.578;2024-01-15T10:49:21;98353.31;;;0.41;90.27
47883;BME280;37739;50.350;7.578;2024-01-15T10:51:52;98350.16;;;0.45;90.55
47883;BME280;37739;50.350;7.578;2024-01-15T10:54:21;98356.47;;;0.53;90.25
47883;BME280;37739;50.350;7.578;2024-01-15T10:56:49;98346.78;;;0.61;89.81
47883;BME280;37739;50.350;7.578;2024-01-15T10:59:15;98348.38;;;0.58;90.16
47883;BME280;37739;50.350;7.578;2024-01-15T11:01:44;98354.44;;;0.62;89.81
47883;BME280;37739;50.350;7.578;2024-01-15T11:04:14;98362.69;;;0.59;89.59
47883;BME280;37739;50.350;7.578;2024-01-15T11:06:46;98359.09;;;0.54;90.00
47883;BME280;37739;50.350;7.578;2024-01-15T11:09:14;98353.94;;;0.53;89.88
47883;BME280;37739;50.350;7.578;2024-01-15T11:11:44;98357.88;;;0.48;90.62
47883;BME280;37739;50.350;7.578;2024-01-15T11:14:12;98357.09;;;0.49;91.15
47883;BME280;37739;50.350;7.578;2024-01-15T11:16:56;98358.06;;;0.51;90.99
47883;BME280;37739;50.350;7.578;2024-01-15T11:19:22;98357.78;;;0.46;90.96
47883;BME280;37739;50.350;7.578;2024-01-15T11:21:47;98363.97;;;0.51;91.59
47883;BME280;37739;50.350;7.578;2024-01-15T11:24:34;98370.13;;;0.56;91.67
47883;BME280;37739;50.350;7.578;2024-01-15T11:27:03;98366.03;;;0.58;91.42
47883;BME280;37739;50.350;7.578;2024-01-15T11:29:35;98356.06;;;0.62;91.14
47883;BME280;37739;50.350;7.578;2024-01-15T11:32:07;98355.63;;;0.69;90.97
47883;BME280;37739;50.350;7.578;2024-01-15T11:34:56;98360.97;;;0.75;90.99
47883;BME280;37739;50.350;7.578;2024-01-15T11:37:24;98358.00;;;0.82;90.70
47883;BME280;37739;50.350;7.578;2024-01-15T11:39:54;98353.25;;;0.88;90.85
47883;BME280;37739;50.350;7.578;2024-01-15T11:42:23;98356.28;;;0.81;90.14
47883;BME280;37739;50.350;7.578;2024-01-15T11:44:49;98360.31;;;0.77;91.32
47883;BME280;37739;50.350;7.578;2024-01-15T11:47:15;98361.06;;;0.76;90.89
47883;BME280;37739;50.350;7.578;2024-01-15T11:50:01;98366.22;;;0.78;90.36
47883;BME280;37739;50.350;7.578;2024-01-15T11:52:37;98366.53;;;0.84;91.36
47883;BME280;37739;50.350;7.578;2024-01-15T11:55:27;98372.06;;;0.93;91.32
47883;BME280;37739;50.350;7.578;2024-01-15T11:57:55;98367.31;;;1.00;92.12
47883;BME280;37739;50.350;7.578;2024-01-15T12:00:23;98368.25;;;1.02;91.33
47883;BME280;37739;50.350;7.578;2024-01-15T12:02:49;98360.38;;;0.95;91.77
47883;BME280;37739;50.350;7.578;2024-01-15T12:05:19;98377.88;;;0.92;92.80
47883;BME280;37739;50.350;7.578;2024-01-15T12:07:46;98379.63;;;0.93;93.25
47883;BME280;37739;50.350;7.578;2024-01-15T12:10:18;98382.88;;;0.91;93.69
47883;BME280;37739;50.350;7.578;2024-01-15T12:13:29;98385.31;;;0.89;94.64
47883;BME280;37739;50.350;7.578;2024-01-15T12:15:36;98392.63;;;0.85;95.87
47883;BME280;37739;50.350;7.578;2024-01-15T12:18:02;98394.28;;;0.84;96.25
47883;BME280;37739;50.350;7.578;2024-01-15T12:20:31;98401.19;;;0.87;96.96
47883;BME280;37739;50.350;7.578;2024-01-15T12:22:57;98402.13;;;0.89;97.31
47883;BME280;37739;50.350;7.578;2024-01-15T12:25:26;98409.69;;;0.89;97.67
47883;BME280;37739;50.350;7.578;2024-01-15T12:27:57;98401.31;;;0.90;98.69
47883;BME280;37739;50.350;7.578;2024-01-15T12:30:22;98402.19;;;0.90;98.37
47883;BME280;37739;50.350;7.578;2024-01-15T12:32:47;98400.56;;;0.91;99.39
47883;BME280;37739;50.350;7.578;2024-01-15T12:35:15;98402.81;;;0.86;98.98
47883;BME280;37739;50.350;7.578;2024-01-15T12:37:42;98408.81;;;0.88;99.63
47883;BME280;37739;50.350;7.578;2024-01-15T12:40:08;98408.19;;;0.92;99.83
47883;BME280;37739;50.350;7.578;2024-01-15T12:42:40;98402.44;;;0.95;99.85
47883;BME280;37739;50.350;7.578;2024-01-15T12:45:09;98409.59;;;1.04;100.00
47883;BME280;37739;50.350;7.578;2024-01-15T12:47:34;98394.81;;;1.10;99.55
47883;BME280;37739;50.350;7.578;2024-01-15T12:50:06;98394.16;;;1.14;99.95
47883;BME280;37739;50.350;7.578;2024-01-15T12:52:37;98398.72;;;1.21;99.17
47883;BME280;37739;50.350;7.578;2024-01-15T12:55:05;98386.44;;;1.27;98.63
47883;BME280;37739;50.350;7.578;2024-01-15T12:57:34;98393.75;;;1.39;97.68
47883;BME280;37739;50.350;7.578;2024-01-15T12:59:59;98399.31;;;1.50;97.23
47883;BME280;37739;50.350;7.578;2024-01-15T13:02:29;98393.88;;;1.59;96.89
47883;BME280;37739;50.350;7.578;2024-01-15T13:04:55;98396.53;;;1.62;96.27